sensor_id;sensor_type;location;lat;lon;timestamp;pressure;altitude;pressure_sealevel;temperature;humidity
26807;BME280;14380;49.910;6.792;2023-04-27T00:00:42;99005.59;;;3.85;100.00
26807;BME280;14380;49.910;6.792;2023-04-27T00:03:09;99016.88;;;3.87;100.00
26807;BME280;14380;49.910;6.792;2023-04-27T00:05:37;99023.31;;;3.74;100.00
26807;BME280;14380;49.910;6.792;2023-04-27T00:08:04;99029.44;;;3.71;100.00
26807;BME280;14380;49.910;6.792;2023-04-27T00:10:30;99021.97;;;3.94;100.00
26807;BME280;14380;49.910;6.792;2023-04-27T00:12:57;99023.13;;;3.80;100.00
26807;BME280;14380;49.910;6.792;2023-04-27T00:15:24;99021.28;;;3.85;100.00
26807;BME280;14380;49.910;6.792;2023-04-27T00:17:52;99019.59;;;3.83;100.00
26807;BME280;14380;49.910;6.792;2023-04-27T00:20:18;99021.59;;;3.71;100.00
26807;BME280;14380;49.910;6.792;2023-04-27T00:22:45;99022.84;;;3.94;100.00
26807;BME280;14380;49.910;6.792;2023-04-27T00:25:12;99013.97;;;3.62;100.00
26807;BME280;14380;49.910;6.792;2023-04-27T00:27:38;99014.66;;;3.72;100.00
26807;BME280;14380;49.910;6.792;2023-04-27T00:30:06;99011.22;;;3.70;100.00
26807;BME280;14380;49.910;6.792;2023-04-27T00:32:33;99016.19;;;3.79;100.00
26807;BME280;14380;49.910;6.792;2023-04-27T00:35:01;99017.22;;;3.34;100.00
26807;BME280;14380;49.910;6.792;2023-04-27T00:37:27;99011.28;;;3.67;100.00
26807;BME280;14380;49.910;6.792;2023-04-27T00:39:54;99018.97;;;3.73;100.00
26807;BME280;14380;49.910;6.792;2023-04-27T00:42:20;99019.19;;;3.64;100.00
26807;BME280;14380;49.910;6.792;2023-04-27T00:44:49;99020.41;;;3.47;100.00
26807;BME280;14380;49.910;6.792;2023-04-27T00:47:15;99013.00;;;3.27;100.00
26807;BME280;14380;49.910;6.792;2023-04-27T00:49:43;99012.50;;;3.52;100.00
26807;BME280;14380;49.910;6.792;2023-04-27T00:52:11;99013.88;;;3.27;100.00
26807;BME280;14380;49.910;6.792;2023-04-27T00:54:37;99021.53;;;3.35;100.00
26807;BME280;14380;49.910;6.792;2023-04-27T00:57:04;99015.28;;;3.42;100.00
26807;BME280;14380;49.910;6.792;2023-04-27T00:59:31;99005.56;;;3.49;100.00
26807;BME280;14380;49.910;6.792;2023-04-27T01:01:58;99000.06;;;3.22;100.00
26807;BME280;14380;49.910;6.792;2023-04-27T01:04:25;98997.66;;;3.52;100.00
26807;BME280;14380;49.910;6.792;2023-04-27T01:06:52;98997.59;;;3.16;100.00
26807;BME280;14380;49.910;6.792;2023-04-27T01:09:20;98997.47;;;3.22;100.00
26807;BME280;14380;49.910;6.792;2023-04-27T01:11:47;99000.97;;;3.20;100.00
26807;BME280;14380;49.910;6.792;2023-04-27T01:14:13;99002.38;;;3.36;100.00
26807;BME280;14380;49.910;6.792;2023-04-27T01:16:41;99001.97;;;3.14;100.00
26807;BME280;14380;49.910;6.792;2023-04-27T01:19:08;99001.28;;;3.06;100.00
26807;BME280;14380;49.910;6.792;2023-04-27T01:21:35;98998.59;;;3.09;100.00
26807;BME280;14380;49.910;6.792;2023-04-27T01:24:04;99002.63;;;3.25;100.00
26807;BME280;14380;49.910;6.792;2023-04-27T01:26:31;99001.56;;;2.92;100.00
26807;BME280;14380;49.910;6.792;2023-04-27T01:28:58;99011.69;;;3.07;100.00
26807;BME280;14380;49.910;6.792;2023-04-27T01:31:25;99022.91;;;3.11;100.00
26807;BME280;14380;49.910;6.792;2023-04-27T01:33:51;99025.53;;;3.11;100.00
26807;BME280;14380;49.910;6.792;2023-04-27T01:36:18;99018.00;;;2.95;100.00
26807;BME280;14380;49.910;6.792;2023-04-27T01:38:44;99018.88;;;2.96;100.00
26807;BME280;14380;49.910;6.792;2023-04-27T01:41:12;99022.16;;;3.06;100.00
26807;BME280;14380;49.910;6.792;2023-04-27T01:43:39;99023.03;;;3.05;100.00
26807;BME280;14380;49.910;6.792;2023-04-27T01:46:08;99021.38;;;3.02;100.00
26807;BME280;14380;49.910;6.792;2023-04-27T01:48:35;99024.84;;;3.01;100.00
26807;BME280;14380;49.910;6.792;2023-04-27T01:51:02;99027.06;;;3.21;100.00
26807;BME280;14380;49.910;6.792;2023-04-27T01:53:29;99020.84;;;3.27;100.00
26807;BME280;14380;49.910;6.792;2023-04-27T01:55:55;99021.19;;;3.10;100.00
26807;BME280;14380;49.910;6.792;2023-04-27T01:58:25;99022.53;;;3.30;100.00
26807;BME280;14380;49.910;6.792;2023-04-27T02:00:52;99014.53;;;3.37;100.00
26807;BME280;14380;49.910;6.792;2023-04-27T02:03:18;99005.81;;;3.38;100.00
26807;BME280;14380;49.910;6.792;2023-04-27T02:05:45;99019.03;;;3.31;100.00
26807;BME280;14380;49.910;6.792;2023-04-27T02:08:12;99017.97;;;3.39;100.00
26807;BME280;14380;49.910;6.792;2023-04-27T02:10:39;99016.00;;;3.49;100.00
26807;BME280;14380;49.910;6.792;2023-04-27T02:13:05;99012.38;;;3.56;100.00
26807;BME280;14380;49.910;6.792;2023-04-27T02:15:33;99007.66;;;3.72;100.00
26807;BME280;14380;49.910;6.792;2023-04-27T02:18:01;99012.66;;;3.82;100.00
26807;BME280;14380;49.910;6.792;2023-04-27T02:20:28;99008.16;;;3.89;100.00
26807;BME280;14380;49.910;6.792;2023-04-27T02:22:55;99004.69;;;3.88;100.00
26807;BME280;14380;49.910;6.792;2023-04-27T02:25:22;98999.63;;;3.80;100.00
26807;BME280;14380;49.910;6.792;2023-04-27T02:27:48;99010.41;;;4.02;100.00
26807;BME280;14380;49.910;6.792;2023-04-27T02:30:15;99005.19;;;4.02;100.00
26807;BME280;14380;49.910;6.792;2023-04-27T02:32:43;98993.16;;;3.97;100.00
26807;BME280;14380;49.910;6.792;2023-04-27T02:35:10;99000.75;;;4.06;100.00
26807;BME280;14380;49.910;6.792;2023-04-27T02:37:37;99001.38;;;4.16;100.00
26807;BME280;14380;49.910;6.792;2023-04-27T02:40:04;98994.03;;;3.96;100.00
26807;BME280;14380;49.910;6.792;2023-04-27T02:42:32;99000.69;;;4.09;100.00
26807;BME280;14380;49.910;6.792;2023-04-27T02:44:59;99012.19;;;4.02;100.00
26807;BME280;14380;49.910;6.792;2023-04-27T02:47:25;99011.31;;;4.01;100.00
26807;BME280;14380;49.910;6.792;2023-04-27T02:49:53;99008.53;;;4.09;100.00
26807;BME280;14380;49.910;6.792;2023-04-27T02:52:20;99008.19;;;4.23;100.00
26807;BME280;14380;49.910;6.792;2023-04-27T02:54:47;99001.69;;;4.04;100.00
26807;BME280;14380;49.910;6.792;2023-04-27T02:57:13;99005.03;;;4.10;100.00
26807;BME280;14380;49.910;6.792;2023-04-27T02:59:40;99009.78;;;3.94;100.00
26807;BME280;14380;49.910;6.792;2023-04-27T03:02:06;99004.41;;;3.63;100.00
26807;BME280;14380;49.910;6.792;2023-04-27T03:04:33;99002.84;;;3.92;100.00
26807;BME280;14380;49.910;6.792;2023-04-27T03:07:02;98996.88;;;3.86;100.00
26807;BME280;14380;49.910;6.792;2023-04-27T03:09:28;99001.00;;;3.59;100.00
26807;BME280;14380;49.910;6.792;2023-04-27T03:11:55;98997.19;;;3.74;100.00
26807;BME280;14380;49.910;6.792;2023-04-27T03:14:21;98994.88;;;3.60;100.00
26807;BME280;14380;49.910;6.792;2023-04-27T03:16:48;99001.88;;;3.58;100.00
26807;BME280;14380;49.910;6.792;2023-04-27T03:19:15;98997.41;;;3.63;100.00
26807;BME280;14380;49.910;6.792;2023-04-27T03:21:41;99005.88;;;3.35;100.00
26807;BME280;14380;49.910;6.792;2023-04-27T03:24:09;99011.16;;;3.32;100.00
26807;BME280;14380;49.910;6.792;2023-04-27T03:26:36;99009.50;;;3.28;100.00
26807;BME280;14380;49.910;6.792;2023-04-27T03:29:02;99002.31;;;3.39;100.00
26807;BME280;14380;49.910;6.792;2023-04-27T03:31:29;98999.78;;;3.35;100.00
26807;BME280;14380;49.910;6.792;2023-04-27T03:33:55;99000.09;;;3.21;100.00
26807;BME280;14380;49.910;6.792;2023-04-27T03:36:22;98989.53;;;3.27;100.00
26807;BME280;14380;49.910;6.792;2023-04-27T03:38:48;98995.94;;;3.10;100.00
26807;BME280;14380;49.910;6.792;2023-04-27T03:41:16;98992.19;;;3.25;100.00
26807;BME280;14380;49.910;6.792;2023-04-27T03:43:43;99000.00;;;3.25;100.00
26807;BME280;14380;49.910;6.792;2023-04-27T03:46:09;99000.44;;;3.04;100.00
26807;BME280;14380;49.910;6.792;2023-04-27T03:48:36;99011.66;;;3.09;100.00
26807;BME280;14380;49.910;6.792;2023-04-27T03:51:03;99014.13;;;3.15;100.00
26807;BME280;14380;49.910;6.792;2023-04-27T03:53:29;99016.75;;;3.13;100.00
26807;BME280;14380;49.910;6.792;2023-04-27T03:55:56;99008.44;;;2.96;100.00
26807;BME280;14380;49.910;6.792;2023-04-27T03:58:24;99012.00;;;2.90;100.00
26807;BME280;14380;49.910;6.792;2023-04-27T04:00:50;99012.81;;;2.94;100.00
26807;BME280;14380;49.910;6.792;2023-04-27T04:03:17;99007.97;;;3.19;100.00
26807;BME280;14380;49.910;6.792;2023-04-27T04:05:43;99015.94;;;3.11;100.00
26807;BME280;14380;49.910;6.792;2023-04-27T04:08:12;99013.47;;;3.05;100.00
26807;BME280;14380;49.910;6.792;2023-04-27T04:10:38;99012.47;;;3.11;100.00
26807;BME280;14380;49.910;6.792;2023-04-27T04:13:05;99011.91;;;2.96;100.00
26807;BME280;14380;49.910;6.792;2023-04-27T04:15:33;99010.69;;;3.13;100.00
26807;BME280;14380;49.910;6.792;2023-04-27T04:18:00;99012.16;;;2.84;100.00
26807;BME280;14380;49.910;6.792;2023-04-27T04:20:27;99019.53;;;3.06;100.00
26807;BME280;14380;49.910;6.792;2023-04-27T04:22:53;99009.84;;;2.68;100.00
26807;BME280;14380;49.910;6.792;2023-04-27T04:25:20;99017.16;;;2.93;100.00
26807;BME280;14380;49.910;6.792;2023-04-27T04:27:46;99011.09;;;2.93;100.00
26807;BME280;14380;49.910;6.792;2023-04-27T04:30:13;99018.78;;;3.01;100.00
26807;BME280;14380;49.910;6.792;2023-04-27T04:32:42;99024.22;;;2.88;100.00
26807;BME280;14380;49.910;6.792;2023-04-27T04:35:09;99021.59;;;2.88;100.00
26807;BME280;14380;49.910;6.792;2023-04-27T04:37:36;99027.53;;;2.96;100.00
26807;BME280;14380;49.910;6.792;2023-04-27T04:40:03;99030.97;;;3.00;100.00
26807;BME280;14380;49.910;6.792;2023-04-27T04:42:33;99021.59;;;2.90;100.00
26807;BME280;14380;49.910;6.792;2023-04-27T04:45:00;99027.81;;;2.82;100.00
26807;BME280;14380;49.910;6.792;2023-04-27T04:47:28;99029.69;;;2.76;100.00
26807;BME280;14380;49.910;6.792;2023-04-27T04:49:57;99026.47;;;3.07;100.00
26807;BME280;14380;49.910;6.792;2023-04-27T04:52:24;99028.06;;;3.14;100.00
26807;BME280;14380;49.910;6.792;2023-04-27T04:54:50;99029.81;;;3.13;100.00
26807;BME280;14380;49.910;6.792;2023-04-27T04:57:17;99037.63;;;3.15;100.00
26807;BME280;14380;49.910;6.792;2023-04-27T04:59:44;99037.75;;;3.09;100.00
26807;BME280;14380;49.910;6.792;2023-04-27T05:02:10;99041.47;;;3.39;100.00
26807;BME280;14380;49.910;6.792;2023-04-27T05:04:37;99052.97;;;3.29;100.00
26807;BME280;14380;49.910;6.792;2023-04-27T05:07:05;99055.28;;;3.02;100.00
26807;BME280;14380;49.910;6.792;2023-04-27T05:09:31;99050.13;;;3.40;100.00
26807;BME280;14380;49.910;6.792;2023-04-27T05:12:00;99048.41;;;3.80;100.00
26807;BME280;14380;49.910;6.792;2023-04-27T05:14:26;99054.19;;;4.29;100.00
26807;BME280;14380;49.910;6.792;2023-04-27T05:16:53;99048.56;;;4.79;100.00
26807;BME280;14380;49.910;6.792;2023-04-27T05:19:20;99047.03;;;4.70;100.00
26807;BME280;14380;49.910;6.792;2023-04-27T05:21:46;99039.22;;;5.02;100.00
26807;BME280;14380;49.910;6.792;2023-04-27T05:24:14;99043.16;;;5.17;100.00
26807;BME280;14380;49.910;6.792;2023-04-27T05:26:41;99045.50;;;5.28;100.00
26807;BME280;14380;49.910;6.792;2023-04-27T05:29:08;99045.91;;;5.72;100.00
26807;BME280;14380;49.910;6.792;2023-04-27T05:31:35;99054.28;;;5.25;100.00
26807;BME280;14380;49.910;6.792;2023-04-27T05:34:02;99047.84;;;5.65;100.00
26807;BME280;14380;49.910;6.792;2023-04-27T05:36:29;99053.09;;;5.65;99.77
26807;BME280;14380;49.910;6.792;2023-04-27T05:38:56;99047.47;;;5.78;100.00
26807;BME280;14380;49.910;6.792;2023-04-27T05:41:24;99051.44;;;5.91;99.29
26807;BME280;14380;49.910;6.792;2023-04-27T05:43:50;99045.03;;;5.72;98.56
26807;BME280;14380;49.910;6.792;2023-04-27T05:46:17;99052.47;;;6.16;100.00
26807;BME280;14380;49.910;6.792;2023-04-27T05:48:45;99056.44;;;6.28;98.30
26807;BME280;14380;49.910;6.792;2023-04-27T05:51:11;99059.03;;;6.54;99.06
26807;BME280;14380;49.910;6.792;2023-04-27T05:53:38;99061.28;;;6.65;96.39
26807;BME280;14380;49.910;6.792;2023-04-27T05:56:06;99054.47;;;7.34;96.32
26807;BME280;14380;49.910;6.792;2023-04-27T05:58:34;99067.22;;;6.70;94.48
26807;BME280;14380;49.910;6.792;2023-04-27T06:01:00;99064.13;;;6.59;96.00
26807;BME280;14380;49.910;6.792;2023-04-27T06:03:28;99064.34;;;6.78;94.24
26807;BME280;14380;49.910;6.792;2023-04-27T06:05:55;99063.50;;;7.51;96.32
26807;BME280;14380;49.910;6.792;2023-04-27T06:08:22;99064.66;;;6.94;92.14
26807;BME280;14380;49.910;6.792;2023-04-27T06:10:49;99066.63;;;7.61;92.09
26807;BME280;14380;49.910;6.792;2023-04-27T06:13:17;99063.38;;;7.54;89.37
26807;BME280;14380;49.910;6.792;2023-04-27T06:15:45;99052.34;;;8.12;90.46
26807;BME280;14380;49.910;6.792;2023-04-27T06:18:11;99056.00;;;8.53;86.72
26807;BME280;14380;49.910;6.792;2023-04-27T06:20:38;99063.09;;;8.51;89.86
26807;BME280;14380;49.910;6.792;2023-04-27T06:23:06;99054.41;;;8.90;78.62
26807;BME280;14380;49.910;6.792;2023-04-27T06:25:33;99046.56;;;9.09;79.70
26807;BME280;14380;49.910;6.792;2023-04-27T06:28:00;99043.03;;;8.89;78.94
26807;BME280;14380;49.910;6.792;2023-04-27T06:30:26;99046.91;;;9.01;81.54
26807;BME280;14380;49.910;6.792;2023-04-27T06:32:54;99050.09;;;9.29;83.04
26807;BME280;14380;49.910;6.792;2023-04-27T06:35:20;99044.25;;;9.41;78.25
26807;BME280;14380;49.910;6.792;2023-04-27T06:37:47;99055.00;;;9.36;80.01
26807;BME280;14380;49.910;6.792;2023-04-27T06:40:14;99052.94;;;9.43;76.33
26807;BME280;14380;49.910;6.792;2023-04-27T06:42:40;99044.72;;;9.49;77.39
26807;BME280;14380;49.910;6.792;2023-04-27T06:45:07;99042.47;;;9.61;76.31
26807;BME280;14380;49.910;6.792;2023-04-27T06:47:34;99052.56;;;9.13;74.63
26807;BME280;14380;49.910;6.792;2023-04-27T06:50:02;99051.00;;;9.66;75.50
26807;BME280;14380;49.910;6.792;2023-04-27T06:52:30;99050.09;;;9.67;76.98
26807;BME280;14380;49.910;6.792;2023-04-27T06:54:57;99050.66;;;9.74;71.93
26807;BME280;14380;49.910;6.792;2023-04-27T06:57:24;99045.09;;;9.80;75.32
26807;BME280;14380;49.910;6.792;2023-04-27T06:59:50;99055.84;;;9.94;77.73
26807;BME280;14380;49.910;6.792;2023-04-27T07:02:17;99050.66;;;9.55;70.80
26807;BME280;14380;49.910;6.792;2023-04-27T07:04:44;99043.38;;;9.60;71.52
26807;BME280;14380;49.910;6.792;2023-04-27T07:07:12;99046.03;;;9.60;72.52
26807;BME280;14380;49.910;6.792;2023-04-27T07:09:38;99045.38;;;9.93;69.87
26807;BME280;14380;49.910;6.792;2023-04-27T07:12:05;99041.19;;;9.70;72.65
26807;BME280;14380;49.910;6.792;2023-04-27T07:14:32;99040.41;;;9.67;72.32
26807;BME280;14380;49.910;6.792;2023-04-27T07:16:59;99044.84;;;10.04;70.62
26807;BME280;14380;49.910;6.792;2023-04-27T07:19:25;99035.22;;;10.03;71.01
26807;BME280;14380;49.910;6.792;2023-04-27T07:21:52;99043.69;;;10.46;69.70
26807;BME280;14380;49.910;6.792;2023-04-27T07:24:20;99046.88;;;10.16;71.69
26807;BME280;14380;49.910;6.792;2023-04-27T07:26:46;99040.38;;;10.23;70.88
26807;BME280;14380;49.910;6.792;2023-04-27T07:29:13;99048.66;;;10.52;70.65
26807;BME280;14380;49.910;6.792;2023-04-27T07:31:41;99046.22;;;11.00;69.16
26807;BME280;14380;49.910;6.792;2023-04-27T07:34:08;99045.47;;;10.81;68.65
26807;BME280;14380;49.910;6.792;2023-04-27T07:36:35;99048.88;;;11.16;70.12
26807;BME280;14380;49.910;6.792;2023-04-27T07:39:02;99048.09;;;11.32;67.90
26807;BME280;14380;49.910;6.792;2023-04-27T07:41:30;99044.81;;;10.93;66.68
26807;BME280;14380;49.910;6.792;2023-04-27T07:43:58;99041.69;;;11.36;67.28
26807;BME280;14380;49.910;6.792;2023-04-27T07:46:25;99049.31;;;10.91;66.97
26807;BME280;14380;49.910;6.792;2023-04-27T07:48:51;99049.44;;;11.23;67.23
26807;BME280;14380;49.910;6.792;2023-04-27T07:51:19;99041.16;;;11.29;67.20
26807;BME280;14380;49.910;6.792;2023-04-27T07:53:46;99043.47;;;11.36;68.54
26807;BME280;14380;49.910;6.792;2023-04-27T07:56:12;99043.03;;;11.27;67.50
26807;BME280;14380;49.910;6.792;2023-04-27T07:58:40;99035.03;;;11.45;68.37
26807;BME280;14380;49.910;6.792;2023-04-27T08:01:07;99030.78;;;11.74;67.54
26807;BME280;14380;49.910;6.792;2023-04-27T08:03:33;99028.06;;;11.76;66.40
26807;BME280;14380;49.910;6.792;2023-04-27T08:06:00;99029.00;;;11.75;65.65
26807;BME280;14380;49.910;6.792;2023-04-27T08:08:27;99024.84;;;12.03;66.96
26807;BME280;14380;49.910;6.792;2023-04-27T08:10:54;99029.69;;;11.63;65.00
26807;BME280;14380;49.910;6.792;2023-04-27T08:13:20;99028.72;;;11.96;65.10
26807;BME280;14380;49.910;6.792;2023-04-27T08:15:48;99028.75;;;11.80;63.69
26807;BME280;14380;49.910;6.792;2023-04-27T08:18:15;99023.56;;;12.10;65.10
26807;BME280;14380;49.910;6.792;2023-04-27T08:20:43;99021.75;;;11.79;63.96
26807;BME280;14380;49.910;6.792;2023-04-27T08:23:10;99027.19;;;11.92;65.16
26807;BME280;14380;49.910;6.792;2023-04-27T08:25:37;99029.44;;;11.99;62.94
26807;BME280;14380;49.910;6.792;2023-04-27T08:28:03;99014.97;;;12.21;62.75
26807;BME280;14380;49.910;6.792;2023-04-27T08:30:30;99014.31;;;12.01;62.36
26807;BME280;14380;49.910;6.792;2023-04-27T08:32:58;99010.13;;;12.89;63.23
26807;BME280;14380;49.910;6.792;2023-04-27T08:35:25;99017.31;;;12.87;62.89
26807;BME280;14380;49.910;6.792;2023-04-27T08:37:51;99007.75;;;12.99;62.20
26807;BME280;14380;49.910;6.792;2023-04-27T08:40:18;99008.09;;;12.63;62.03
26807;BME280;14380;49.910;6.792;2023-04-27T08:42:53;99001.00;;;12.78;61.97
26807;BME280;14380;49.910;6.792;2023-04-27T08:45:21;98998.22;;;12.20;60.29
26807;BME280;14380;49.910;6.792;2023-04-27T08:47:47;98994.75;;;12.65;62.50
26807;BME280;14380;49.910;6.792;2023-04-27T08:50:16;98993.25;;;13.04;60.37
26807;BME280;14380;49.910;6.792;2023-04-27T08:52:43;98997.41;;;12.65;60.55
26807;BME280;14380;49.910;6.792;2023-04-27T08:55:10;98995.91;;;12.75;60.31
26807;BME280;14380;49.910;6.792;2023-04-27T08:57:36;98990.44;;;12.93;59.47
26807;BME280;14380;49.910;6.792;2023-04-27T09:00:04;98986.53;;;13.42;61.73
26807;BME280;14380;49.910;6.792;2023-04-27T09:02:37;98986.03;;;13.92;59.10
26807;BME280;14380;49.910;6.792;2023-04-27T09:05:16;98985.50;;;14.27;58.69
26807;BME280;14380;49.910;6.792;2023-04-27T09:07:54;98985.25;;;14.17;58.62
26807;BME280;14380;49.910;6.792;2023-04-27T09:10:20;98987.50;;;14.23;58.85
26807;BME280;14380;49.910;6.792;2023-04-27T09:12:54;98989.28;;;14.10;57.47
26807;BME280;14380;49.910;6.792;2023-04-27T09:15:20;98988.63;;;14.06;58.08
26807;BME280;14380;49.910;6.792;2023-04-27T09:17:52;98988.50;;;14.48;57.99
26807;BME280;14380;49.910;6.792;2023-04-27T09:20:21;98991.47;;;14.31;59.11
26807;BME280;14380;49.910;6.792;2023-04-27T09:22:49;98997.56;;;14.05;58.25
26807;BME280;14380;49.910;6.792;2023-04-27T09:25:24;98992.56;;;14.54;58.78
26807;BME280;14380;49.910;6.792;2023-04-27T09:27:51;98995.31;;;13.99;58.84
26807;BME280;14380;49.910;6.792;2023-04-27T09:30:18;98995.19;;;14.01;57.88
26807;BME280;14380;49.910;6.792;2023-04-27T09:32:50;98996.59;;;14.06;57.54
26807;BME280;14380;49.910;6.792;2023-04-27T09:35:22;98992.22;;;14.33;57.82
26807;BME280;14380;49.910;6.792;2023-04-27T09:37:50;98992.31;;;14.44;57.93
26807;BME280;14380;49.910;6.792;2023-04-27T09:40:18;98986.50;;;14.65;57.40
26807;BME280;14380;49.910;6.792;2023-04-27T09:42:45;98991.22;;;14.74;57.82
26807;BME280;14380;49.910;6.792;2023-04-27T09:45:12;98987.91;;;15.22;57.13
26807;BME280;14380;49.910;6.792;2023-04-27T09:47:39;98985.84;;;15.39;58.10
26807;BME280;14380;49.910;6.792;2023-04-27T09:50:07;98983.19;;;15.39;57.42
26807;BME280;14380;49.910;6.792;2023-04-27T09:52:36;98985.06;;;15.50;58.18
26807;BME280;14380;49.910;6.792;2023-04-27T09:55:04;98978.66;;;15.65;57.05
26807;BME280;14380;49.910;6.792;2023-04-27T09:57:36;98973.97;;;15.93;55.26
26807;BME280;14380;49.910;6.792;2023-04-27T10:00:25;98974.28;;;16.13;55.97
26807;BME280;14380;49.910;6.792;2023-04-27T10:03:06;98978.75;;;16.37;56.32
26807;BME280;14380;49.910;6.792;2023-04-27T10:05:45;98983.03;;;15.53;54.92
26807;BME280;14380;49.910;6.792;2023-04-27T10:08:17;98976.59;;;15.69;56.04
26807;BME280;14380;49.910;6.792;2023-04-27T10:10:46;98974.69;;;16.19;57.11
26807;BME280;14380;49.910;6.792;2023-04-27T10:13:20;98981.84;;;15.20;54.55
26807;BME280;14380;49.910;6.792;2023-04-27T10:15:48;98985.81;;;15.52;56.20
26807;BME280;14380;49.910;6.792;2023-04-27T10:18:24;98978.97;;;15.60;56.30
26807;BME280;14380;49.910;6.792;2023-04-27T10:20:51;98966.44;;;15.50;54.86
26807;BME280;14380;49.910;6.792;2023-04-27T10:23:23;98970.41;;;15.44;56.80
26807;BME280;14380;49.910;6.792;2023-04-27T10:25:50;98972.41;;;15.77;56.59
26807;BME280;14380;49.910;6.792;2023-04-27T10:28:17;98973.66;;;15.85;55.15
26807;BME280;14380;49.910;6.792;2023-04-27T10:30:46;98964.34;;;16.03;54.78
26807;BME280;14380;49.910;6.792;2023-04-27T10:33:15;98961.50;;;16.29;54.28
26807;BME280;14380;49.910;6.792;2023-04-27T10:35:44;98957.31;;;16.02;54.75
26807;BME280;14380;49.910;6.792;2023-04-27T10:38:20;98947.03;;;16.56;54.57
26807;BME280;14380;49.910;6.792;2023-04-27T10:40:55;98940.59;;;16.47;55.07
26807;BME280;14380;49.910;6.792;2023-04-27T10:43:24;98945.09;;;16.58;55.21
26807;BME280;14380;49.910;6.792;2023-04-27T10:45:51;98935.44;;;16.80;58.58
26807;BME280;14380;49.910;6.792;2023-04-27T10:48:17;98936.88;;;16.50;58.06
26807;BME280;14380;49.910;6.792;2023-04-27T10:50:44;98931.38;;;15.93;54.74
26807;BME280;14380;49.910;6.792;2023-04-27T10:53:11;98929.59;;;16.63;58.60
26807;BME280;14380;49.910;6.792;2023-04-27T10:55:39;98930.03;;;15.99;56.87
26807;BME280;14380;49.910;6.792;2023-04-27T10:58:06;98919.41;;;16.46;56.82
26807;BME280;14380;49.910;6.792;2023-04-27T11:00:35;98920.06;;;16.72;58.33
26807;BME280;14380;49.910;6.792;2023-04-27T11:03:11;98920.53;;;16.89;56.58
26807;BME280;14380;49.910;6.792;2023-04-27T11:05:38;98914.50;;;16.98;54.79
26807;BME280;14380;49.910;6.792;2023-04-27T11:08:06;98906.94;;;16.92;53.45
26807;BME280;14380;49.910;6.792;2023-04-27T11:10:33;98912.66;;;17.21;54.75
26807;BME280;14380;49.910;6.792;2023-04-27T11:13:07;98917.75;;;16.90;56.73
26807;BME280;14380;49.910;6.792;2023-04-27T11:15:44;98910.22;;;17.07;56.24
26807;BME280;14380;49.910;6.792;2023-04-27T11:18:11;98905.88;;;17.06;56.18
26807;BME280;14380;49.910;6.792;2023-04-27T11:20:38;98903.59;;;17.13;55.43
26807;BME280;14380;49.910;6.792;2023-04-27T11:23:04;98899.66;;;16.94;55.38
26807;BME280;14380;49.910;6.792;2023-04-27T11:25:31;98895.00;;;17.53;54.22
26807;BME280;14380;49.910;6.792;2023-04-27T11:27:57;98898.25;;;17.89;55.80
26807;BME280;14380;49.910;6.792;2023-04-27T11:30:25;98889.31;;;18.11;54.51
26807;BME280;14380;49.910;6.792;2023-04-27T11:32:52;98879.59;;;18.63;54.20
26807;BME280;14380;49.910;6.792;2023-04-27T11:35:19;98886.91;;;18.30;53.71
26807;BME280;14380;49.910;6.792;2023-04-27T11:37:55;98892.66;;;17.60;52.58
26807;BME280;14380;49.910;6.792;2023-04-27T11:40:22;98886.59;;;17.90;55.30
26807;BME280;14380;49.910;6.792;2023-04-27T11:42:55;98885.81;;;17.78;56.00
26807;BME280;14380;49.910;6.792;2023-04-27T11:45:25;98884.31;;;17.86;54.80
26807;BME280;14380;49.910;6.792;2023-04-27T11:47:53;98876.59;;;17.71;53.24
26807;BME280;14380;49.910;6.792;2023-04-27T11:50:22;98879.41;;;18.23;54.93
26807;BME280;14380;49.910;6.792;2023-04-27T11:52:49;98874.56;;;18.17;56.40
26807;BME280;14380;49.910;6.792;2023-04-27T11:55:19;98879.81;;;17.86;55.26
26807;BME280;14380;49.910;6.792;2023-04-27T11:57:46;98875.88;;;17.69;56.06
26807;BME280;14380;49.910;6.792;2023-04-27T12:00:13;98880.34;;;18.43;56.74
26807;BME280;14380;49.910;6.792;2023-04-27T12:02:42;98868.22;;;18.39;54.78
26807;BME280;14380;49.910;6.792;2023-04-27T12:05:18;98866.13;;;17.79;52.14
26807;BME280;14380;49.910;6.792;2023-04-27T12:07:45;98864.75;;;17.85;53.14
26807;BME280;14380;49.910;6.792;2023-04-27T12:10:11;98853.13;;;18.28;53.67
26807;BME280;14380;49.910;6.792;2023-04-27T12:12:38;98854.06;;;18.18;53.39
26807;BME280;14380;49.910;6.792;2023-04-27T12:15:06;98859.31;;;17.87;53.08
26807;BME280;14380;49.910;6.792;2023-04-27T12:17:33;98848.09;;;18.14;52.52
26807;BME280;14380;49.910;6.792;2023-04-27T12:20:01;98849.03;;;18.24;53.80
26807;BME280;14380;49.910;6.792;2023-04-27T12:22:27;98850.00;;;17.69;52.98
26807;BME280;14380;49.910;6.792;2023-04-27T12:24:54;98847.50;;;17.24;54.05
26807;BME280;14380;49.910;6.792;2023-04-27T12:27:21;98847.69;;;17.76;56.62
26807;BME280;14380;49.910;6.792;2023-04-27T12:29:48;98844.84;;;18.32;55.83
26807;BME280;14380;49.910;6.792;2023-04-27T12:32:14;98848.81;;;17.41;54.87
26807;BME280;14380;49.910;6.792;2023-04-27T12:34:41;98845.00;;;18.30;56.12
26807;BME280;14380;49.910;6.792;2023-04-27T12:37:09;98852.13;;;18.51;53.88
26807;BME280;14380;49.910;6.792;2023-04-27T12:39:36;98848.41;;;17.78;56.72
26807;BME280;14380;49.910;6.792;2023-04-27T12:42:03;98851.13;;;18.21;57.07
26807;BME280;14380;49.910;6.792;2023-04-27T12:44:29;98848.31;;;17.68;54.90
26807;BME280;14380;49.910;6.792;2023-04-27T12:46:56;98852.91;;;18.41;55.58
26807;BME280;14380;49.910;6.792;2023-04-27T12:49:22;98846.41;;;18.65;57.92
26807;BME280;14380;49.910;6.792;2023-04-27T12:51:49;98843.78;;;18.44;53.89
26807;BME280;14380;49.910;6.792;2023-04-27T12:54:19;98838.81;;;19.01;55.07
26807;BME280;14380;49.910;6.792;2023-04-27T12:56:46;98842.19;;;19.04;54.14
26807;BME280;14380;49.910;6.792;2023-04-27T12:59:12;98839.84;;;19.40;54.37
26807;BME280;14380;49.910;6.792;2023-04-27T13:01:40;98842.22;;;19.13;53.63
26807;BME280;14380;49.910;6.792;2023-04-27T13:04:06;98844.50;;;19.18;51.96